Fishers, Indiana
Current Conditions -  °F | °C
As of 9:55 AM on Sunday 21 Dec 2014 (Local Time) from KMQJ Reporting Station
Clear Clear  
Wind Chill: 23°   Ceiling: Unl
Heat Index: 28°   Visibility: 4mi
Dew Point: 28°   Wind: 5mph
Humidity: 100%   Direction: 150°SSE
Pressure: 30.29"   Gusts: NA
Location:  39.95°N, 86.02°W
Report Text: KMQJ 211455Z AUTO 15004KT 4SM CLR M02/M02 A3029 RMK AO1
Loading
Personal Weather Stations






























Interactive Weather Map New forecast layout! Learn more

10-Day Weather Forecast

Advertisements
Track Severe Weather on mobile